sensor_id;sensor_type;location;lat;lon;timestamp;temperature;humidity
12634;DHT22;6382;48.614;8.880;2024-02-16T00:01:17;8.20;99.90
12634;DHT22;6382;48.614;8.880;2024-02-16T00:03:42;7.80;99.90
12634;DHT22;6382;48.614;8.880;2024-02-16T00:06:08;7.90;99.90
12634;DHT22;6382;48.614;8.880;2024-02-16T00:08:33;8.00;99.90
12634;DHT22;6382;48.614;8.880;2024-02-16T00:11:00;8.00;99.90
12634;DHT22;6382;48.614;8.880;2024-02-16T00:13:25;8.00;99.90
12634;DHT22;6382;48.614;8.880;2024-02-16T00:15:51;8.00;99.90
12634;DHT22;6382;48.614;8.880;2024-02-16T00:18:16;7.90;99.90
12634;DHT22;6382;48.614;8.880;2024-02-16T00:20:42;7.80;99.90
12634;DHT22;6382;48.614;8.880;2024-02-16T00:23:07;7.80;99.90
12634;DHT22;6382;48.614;8.880;2024-02-16T00:25:33;7.80;99.90
12634;DHT22;6382;48.614;8.880;2024-02-16T00:27:59;7.70;99.90
12634;DHT22;6382;48.614;8.880;2024-02-16T00:30:24;7.70;99.90
12634;DHT22;6382;48.614;8.880;2024-02-16T00:32:50;7.70;99.90
12634;DHT22;6382;48.614;8.880;2024-02-16T00:35:15;7.70;99.90
12634;DHT22;6382;48.614;8.880;2024-02-16T00:37:44;7.80;99.90
12634;DHT22;6382;48.614;8.880;2024-02-16T00:40:11;7.80;99.90
12634;DHT22;6382;48.614;8.880;2024-02-16T00:42:37;7.80;99.90
12634;DHT22;6382;48.614;8.880;2024-02-16T00:45:03;7.90;99.90
12634;DHT22;6382;48.614;8.880;2024-02-16T00:47:31;7.80;99.90
12634;DHT22;6382;48.614;8.880;2024-02-16T00:49:56;7.90;99.90
12634;DHT22;6382;48.614;8.880;2024-02-16T00:52:22;7.80;99.90
12634;DHT22;6382;48.614;8.880;2024-02-16T00:54:48;7.80;99.90
12634;DHT22;6382;48.614;8.880;2024-02-16T00:57:14;7.80;99.90
12634;DHT22;6382;48.614;8.880;2024-02-16T00:59:39;7.70;99.90
12634;DHT22;6382;48.614;8.880;2024-02-16T01:02:05;7.70;99.90
12634;DHT22;6382;48.614;8.880;2024-02-16T01:04:30;7.60;99.90
12634;DHT22;6382;48.614;8.880;2024-02-16T01:06:56;7.60;99.90
12634;DHT22;6382;48.614;8.880;2024-02-16T01:09:22;8.00;99.90
12634;DHT22;6382;48.614;8.880;2024-02-16T01:11:48;7.60;99.90
12634;DHT22;6382;48.614;8.880;2024-02-16T01:14:14;7.50;99.90
12634;DHT22;6382;48.614;8.880;2024-02-16T01:16:40;7.50;99.90
12634;DHT22;6382;48.614;8.880;2024-02-16T01:19:05;7.50;99.90
12634;DHT22;6382;48.614;8.880;2024-02-16T01:21:32;7.60;99.90
12634;DHT22;6382;48.614;8.880;2024-02-16T01:23:58;7.60;99.90
12634;DHT22;6382;48.614;8.880;2024-02-16T01:26:24;8.50;99.90
12634;DHT22;6382;48.614;8.880;2024-02-16T01:28:50;7.70;99.90
12634;DHT22;6382;48.614;8.880;2024-02-16T01:31:15;7.70;99.90
12634;DHT22;6382;48.614;8.880;2024-02-16T01:33:41;7.70;99.90
12634;DHT22;6382;48.614;8.880;2024-02-16T01:36:06;7.70;99.90
12634;DHT22;6382;48.614;8.880;2024-02-16T01:38:32;7.70;99.90
12634;DHT22;6382;48.614;8.880;2024-02-16T01:40:57;7.80;99.90
12634;DHT22;6382;48.614;8.880;2024-02-16T01:43:23;7.90;99.90
12634;DHT22;6382;48.614;8.880;2024-02-16T01:45:49;7.80;99.90
12634;DHT22;6382;48.614;8.880;2024-02-16T01:48:14;7.90;99.90
12634;DHT22;6382;48.614;8.880;2024-02-16T01:50:43;7.90;99.90
12634;DHT22;6382;48.614;8.880;2024-02-16T01:53:09;7.90;99.90
12634;DHT22;6382;48.614;8.880;2024-02-16T01:55:35;7.90;99.90
12634;DHT22;6382;48.614;8.880;2024-02-16T01:58:00;7.80;99.90
12634;DHT22;6382;48.614;8.880;2024-02-16T02:00:26;7.80;99.90
12634;DHT22;6382;48.614;8.880;2024-02-16T02:02:51;7.80;99.90
12634;DHT22;6382;48.614;8.880;2024-02-16T02:05:17;7.80;99.90
12634;DHT22;6382;48.614;8.880;2024-02-16T02:07:43;7.80;99.90
12634;DHT22;6382;48.614;8.880;2024-02-16T02:10:08;7.90;99.90
12634;DHT22;6382;48.614;8.880;2024-02-16T02:12:34;7.90;99.90
12634;DHT22;6382;48.614;8.880;2024-02-16T02:14:59;8.00;99.90
12634;DHT22;6382;48.614;8.880;2024-02-16T02:17:25;8.00;99.90
12634;DHT22;6382;48.614;8.880;2024-02-16T02:19:50;8.00;99.90
12634;DHT22;6382;48.614;8.880;2024-02-16T02:22:16;8.00;99.90
12634;DHT22;6382;48.614;8.880;2024-02-16T02:24:43;8.00;99.90
12634;DHT22;6382;48.614;8.880;2024-02-16T02:27:09;8.00;99.90
12634;DHT22;6382;48.614;8.880;2024-02-16T02:29:35;8.00;99.90
12634;DHT22;6382;48.614;8.880;2024-02-16T02:32:00;8.80;99.90
12634;DHT22;6382;48.614;8.880;2024-02-16T02:34:26;8.00;99.90
12634;DHT22;6382;48.614;8.880;2024-02-16T02:36:51;8.00;99.90
12634;DHT22;6382;48.614;8.880;2024-02-16T02:39:17;7.90;99.90
12634;DHT22;6382;48.614;8.880;2024-02-16T02:41:42;7.90;99.90
12634;DHT22;6382;48.614;8.880;2024-02-16T02:44:08;7.90;99.90
12634;DHT22;6382;48.614;8.880;2024-02-16T02:46:34;7.80;99.90
12634;DHT22;6382;48.614;8.880;2024-02-16T02:48:59;7.80;99.90
12634;DHT22;6382;48.614;8.880;2024-02-16T02:51:25;7.80;99.90
12634;DHT22;6382;48.614;8.880;2024-02-16T02:53:52;7.90;99.90
12634;DHT22;6382;48.614;8.880;2024-02-16T02:56:17;8.10;99.90
12634;DHT22;6382;48.614;8.880;2024-02-16T02:58:43;8.10;99.90
12634;DHT22;6382;48.614;8.880;2024-02-16T03:01:09;8.20;99.90
12634;DHT22;6382;48.614;8.880;2024-02-16T03:03:34;8.30;99.90
12634;DHT22;6382;48.614;8.880;2024-02-16T03:06:00;8.40;99.90
12634;DHT22;6382;48.614;8.880;2024-02-16T03:08:25;8.40;99.90
12634;DHT22;6382;48.614;8.880;2024-02-16T03:10:51;8.40;99.90
12634;DHT22;6382;48.614;8.880;2024-02-16T03:13:17;8.40;99.90
12634;DHT22;6382;48.614;8.880;2024-02-16T03:15:47;8.30;99.90
12634;DHT22;6382;48.614;8.880;2024-02-16T03:18:12;8.40;99.90
12634;DHT22;6382;48.614;8.880;2024-02-16T03:20:38;8.40;99.90
12634;DHT22;6382;48.614;8.880;2024-02-16T03:23:04;8.40;99.90
12634;DHT22;6382;48.614;8.880;2024-02-16T03:25:30;8.40;99.90
12634;DHT22;6382;48.614;8.880;2024-02-16T03:27:55;8.30;99.90
12634;DHT22;6382;48.614;8.880;2024-02-16T03:30:21;8.20;99.90
12634;DHT22;6382;48.614;8.880;2024-02-16T03:32:50;8.20;99.90
12634;DHT22;6382;48.614;8.880;2024-02-16T03:35:16;8.10;99.90
12634;DHT22;6382;48.614;8.880;2024-02-16T03:37:41;8.10;99.90
12634;DHT22;6382;48.614;8.880;2024-02-16T03:40:07;8.00;99.90
12634;DHT22;6382;48.614;8.880;2024-02-16T03:42:33;8.00;99.90
12634;DHT22;6382;48.614;8.880;2024-02-16T03:44:59;8.00;99.90
12634;DHT22;6382;48.614;8.880;2024-02-16T03:47:25;8.00;99.90
12634;DHT22;6382;48.614;8.880;2024-02-16T03:49:50;7.90;99.90
12634;DHT22;6382;48.614;8.880;2024-02-16T03:52:16;7.90;99.90
12634;DHT22;6382;48.614;8.880;2024-02-16T03:54:41;8.00;99.90
12634;DHT22;6382;48.614;8.880;2024-02-16T03:57:09;8.00;99.90
12634;DHT22;6382;48.614;8.880;2024-02-16T03:59:36;8.10;99.90
12634;DHT22;6382;48.614;8.880;2024-02-16T04:02:02;8.10;99.90
12634;DHT22;6382;48.614;8.880;2024-02-16T04:04:28;8.10;99.90
12634;DHT22;6382;48.614;8.880;2024-02-16T04:06:53;8.20;99.90
12634;DHT22;6382;48.614;8.880;2024-02-16T04:09:19;8.10;99.90
12634;DHT22;6382;48.614;8.880;2024-02-16T04:11:47;8.20;99.90
12634;DHT22;6382;48.614;8.880;2024-02-16T04:14:12;8.10;99.90
12634;DHT22;6382;48.614;8.880;2024-02-16T04:16:38;8.20;99.90
12634;DHT22;6382;48.614;8.880;2024-02-16T04:19:03;8.20;99.90
12634;DHT22;6382;48.614;8.880;2024-02-16T04:21:29;8.20;99.90
12634;DHT22;6382;48.614;8.880;2024-02-16T04:23:54;8.10;99.90
12634;DHT22;6382;48.614;8.880;2024-02-16T04:26:20;8.10;99.90
12634;DHT22;6382;48.614;8.880;2024-02-16T04:28:45;8.10;99.90
12634;DHT22;6382;48.614;8.880;2024-02-16T04:31:11;8.10;99.90
12634;DHT22;6382;48.614;8.880;2024-02-16T04:33:36;8.00;99.90
12634;DHT22;6382;48.614;8.880;2024-02-16T04:36:05;8.00;99.90
12634;DHT22;6382;48.614;8.880;2024-02-16T04:38:30;7.90;99.90
12634;DHT22;6382;48.614;8.880;2024-02-16T04:40:56;7.90;99.90
12634;DHT22;6382;48.614;8.880;2024-02-16T04:43:21;7.90;99.90
12634;DHT22;6382;48.614;8.880;2024-02-16T04:45:47;7.90;99.90
12634;DHT22;6382;48.614;8.880;2024-02-16T04:48:12;7.90;99.90
12634;DHT22;6382;48.614;8.880;2024-02-16T04:50:38;7.90;99.90
12634;DHT22;6382;48.614;8.880;2024-02-16T04:53:03;8.00;99.90
12634;DHT22;6382;48.614;8.880;2024-02-16T04:55:29;8.00;99.90
12634;DHT22;6382;48.614;8.880;2024-02-16T04:57:56;8.10;99.90
12634;DHT22;6382;48.614;8.880;2024-02-16T05:00:22;8.10;99.90
12634;DHT22;6382;48.614;8.880;2024-02-16T05:02:47;8.10;99.90
12634;DHT22;6382;48.614;8.880;2024-02-16T05:05:13;8.10;99.90
12634;DHT22;6382;48.614;8.880;2024-02-16T05:07:38;8.10;99.90
12634;DHT22;6382;48.614;8.880;2024-02-16T05:10:07;8.10;99.90
12634;DHT22;6382;48.614;8.880;2024-02-16T05:12:33;8.00;99.90
12634;DHT22;6382;48.614;8.880;2024-02-16T05:14:59;8.10;99.90
12634;DHT22;6382;48.614;8.880;2024-02-16T05:17:25;8.00;99.90
12634;DHT22;6382;48.614;8.880;2024-02-16T05:19:50;8.00;99.90
12634;DHT22;6382;48.614;8.880;2024-02-16T05:22:16;8.00;99.90
12634;DHT22;6382;48.614;8.880;2024-02-16T05:24:43;7.90;99.90
12634;DHT22;6382;48.614;8.880;2024-02-16T05:27:10;7.80;99.90
12634;DHT22;6382;48.614;8.880;2024-02-16T05:29:36;7.70;99.90
12634;DHT22;6382;48.614;8.880;2024-02-16T05:32:01;7.70;99.90
12634;DHT22;6382;48.614;8.880;2024-02-16T05:34:27;7.60;99.90
12634;DHT22;6382;48.614;8.880;2024-02-16T05:36:57;7.60;99.90
12634;DHT22;6382;48.614;8.880;2024-02-16T05:39:23;7.60;99.90
12634;DHT22;6382;48.614;8.880;2024-02-16T05:41:52;7.50;99.90
12634;DHT22;6382;48.614;8.880;2024-02-16T05:44:18;7.40;99.90
12634;DHT22;6382;48.614;8.880;2024-02-16T05:46:45;8.30;99.90
12634;DHT22;6382;48.614;8.880;2024-02-16T05:49:11;8.50;99.90
12634;DHT22;6382;48.614;8.880;2024-02-16T05:51:37;7.20;99.90
12634;DHT22;6382;48.614;8.880;2024-02-16T05:54:03;8.10;99.90
12634;DHT22;6382;48.614;8.880;2024-02-16T05:56:28;7.80;99.90
12634;DHT22;6382;48.614;8.880;2024-02-16T05:58:54;7.30;99.90
12634;DHT22;6382;48.614;8.880;2024-02-16T06:01:19;7.30;99.90
12634;DHT22;6382;48.614;8.880;2024-02-16T06:03:45;7.40;99.90
12634;DHT22;6382;48.614;8.880;2024-02-16T06:06:10;7.40;99.90
12634;DHT22;6382;48.614;8.880;2024-02-16T06:08:36;7.40;99.90
12634;DHT22;6382;48.614;8.880;2024-02-16T06:11:01;7.40;99.90
12634;DHT22;6382;48.614;8.880;2024-02-16T06:13:27;7.50;99.90
12634;DHT22;6382;48.614;8.880;2024-02-16T06:15:53;7.40;99.90
12634;DHT22;6382;48.614;8.880;2024-02-16T06:18:18;7.40;99.90
12634;DHT22;6382;48.614;8.880;2024-02-16T06:20:44;7.40;99.90
12634;DHT22;6382;48.614;8.880;2024-02-16T06:23:10;7.50;99.90
12634;DHT22;6382;48.614;8.880;2024-02-16T06:25:36;7.50;99.90
12634;DHT22;6382;48.614;8.880;2024-02-16T06:28:02;7.50;99.90
12634;DHT22;6382;48.614;8.880;2024-02-16T06:30:28;7.40;99.90
12634;DHT22;6382;48.614;8.880;2024-02-16T06:32:53;7.50;99.90
12634;DHT22;6382;48.614;8.880;2024-02-16T06:35:20;7.50;99.90
12634;DHT22;6382;48.614;8.880;2024-02-16T06:37:45;7.50;99.90
12634;DHT22;6382;48.614;8.880;2024-02-16T06:40:11;7.50;99.90
12634;DHT22;6382;48.614;8.880;2024-02-16T06:42:37;7.50;99.90
12634;DHT22;6382;48.614;8.880;2024-02-16T06:45:03;7.40;99.90
12634;DHT22;6382;48.614;8.880;2024-02-16T06:50:06;7.30;99.90
12634;DHT22;6382;48.614;8.880;2024-02-16T06:52:32;7.30;99.90
12634;DHT22;6382;48.614;8.880;2024-02-16T06:54:57;7.40;99.90
12634;DHT22;6382;48.614;8.880;2024-02-16T06:57:23;7.30;99.90
12634;DHT22;6382;48.614;8.880;2024-02-16T06:59:50;7.30;99.90
12634;DHT22;6382;48.614;8.880;2024-02-16T07:02:18;7.30;99.90
12634;DHT22;6382;48.614;8.880;2024-02-16T07:04:43;8.20;99.90
12634;DHT22;6382;48.614;8.880;2024-02-16T07:07:11;7.30;99.90
12634;DHT22;6382;48.614;8.880;2024-02-16T07:09:36;7.40;99.90
12634;DHT22;6382;48.614;8.880;2024-02-16T07:12:02;7.40;99.90
12634;DHT22;6382;48.614;8.880;2024-02-16T07:14:28;7.40;99.90
12634;DHT22;6382;48.614;8.880;2024-02-16T07:16:53;7.40;99.90
12634;DHT22;6382;48.614;8.880;2024-02-16T07:19:19;7.50;99.90
12634;DHT22;6382;48.614;8.880;2024-02-16T07:21:44;7.50;99.90
12634;DHT22;6382;48.614;8.880;2024-02-16T07:24:10;7.60;99.90
12634;DHT22;6382;48.614;8.880;2024-02-16T07:26:35;7.60;99.90
12634;DHT22;6382;48.614;8.880;2024-02-16T07:29:01;7.70;99.90
12634;DHT22;6382;48.614;8.880;2024-02-16T07:31:31;7.80;99.90
12634;DHT22;6382;48.614;8.880;2024-02-16T07:33:57;7.90;99.90
12634;DHT22;6382;48.614;8.880;2024-02-16T07:36:22;8.00;99.90
12634;DHT22;6382;48.614;8.880;2024-02-16T07:38:48;8.00;99.90
12634;DHT22;6382;48.614;8.880;2024-02-16T07:41:13;8.10;99.90
12634;DHT22;6382;48.614;8.880;2024-02-16T07:43:39;8.20;99.90
12634;DHT22;6382;48.614;8.880;2024-02-16T07:46:04;8.30;99.90
12634;DHT22;6382;48.614;8.880;2024-02-16T07:48:29;8.40;99.90
12634;DHT22;6382;48.614;8.880;2024-02-16T07:50:55;8.50;99.90
12634;DHT22;6382;48.614;8.880;2024-02-16T07:53:23;8.50;99.90
12634;DHT22;6382;48.614;8.880;2024-02-16T07:55:49;8.60;99.90
12634;DHT22;6382;48.614;8.880;2024-02-16T07:58:14;8.60;99.90
12634;DHT22;6382;48.614;8.880;2024-02-16T08:00:40;8.70;99.90
12634;DHT22;6382;48.614;8.880;2024-02-16T08:03:05;8.80;99.90
12634;DHT22;6382;48.614;8.880;2024-02-16T08:05:31;8.70;99.90
12634;DHT22;6382;48.614;8.880;2024-02-16T08:07:57;9.50;99.90
12634;DHT22;6382;48.614;8.880;2024-02-16T08:10:23;8.90;99.90
12634;DHT22;6382;48.614;8.880;2024-02-16T08:12:50;8.90;99.90
12634;DHT22;6382;48.614;8.880;2024-02-16T08:15:16;9.00;99.90
12634;DHT22;6382;48.614;8.880;2024-02-16T08:17:48;9.10;99.90
12634;DHT22;6382;48.614;8.880;2024-02-16T08:20:13;9.20;99.90
12634;DHT22;6382;48.614;8.880;2024-02-16T08:22:40;9.30;99.90
12634;DHT22;6382;48.614;8.880;2024-02-16T08:25:06;9.30;99.90
12634;DHT22;6382;48.614;8.880;2024-02-16T08:27:31;9.40;99.90
12634;DHT22;6382;48.614;8.880;2024-02-16T08:29:57;9.50;99.90
12634;DHT22;6382;48.614;8.880;2024-02-16T08:32:23;9.60;99.90
12634;DHT22;6382;48.614;8.880;2024-02-16T08:34:48;9.60;99.90
12634;DHT22;6382;48.614;8.880;2024-02-16T08:37:15;9.70;99.90
12634;DHT22;6382;48.614;8.880;2024-02-16T08:39:40;9.80;99.90
12634;DHT22;6382;48.614;8.880;2024-02-16T08:42:06;10.50;99.90
12634;DHT22;6382;48.614;8.880;2024-02-16T08:44:34;9.90;99.90
12634;DHT22;6382;48.614;8.880;2024-02-16T08:46:59;10.00;99.90
12634;DHT22;6382;48.614;8.880;2024-02-16T08:49:25;10.10;99.90
12634;DHT22;6382;48.614;8.880;2024-02-16T08:51:50;10.20;99.90
12634;DHT22;6382;48.614;8.880;2024-02-16T08:54:16;10.30;99.90
12634;DHT22;6382;48.614;8.880;2024-02-16T08:56:45;10.30;99.90
12634;DHT22;6382;48.614;8.880;2024-02-16T08:59:10;10.40;99.90
12634;DHT22;6382;48.614;8.880;2024-02-16T09:01:37;10.40;99.90
12634;DHT22;6382;48.614;8.880;2024-02-16T09:04:03;9.80;99.90
12634;DHT22;6382;48.614;8.880;2024-02-16T09:06:28;10.50;99.90
12634;DHT22;6382;48.614;8.880;2024-02-16T09:08:54;10.60;99.90
12634;DHT22;6382;48.614;8.880;2024-02-16T09:11:20;11.40;99.90
12634;DHT22;6382;48.614;8.880;2024-02-16T09:13:45;10.70;99.90
12634;DHT22;6382;48.614;8.880;2024-02-16T09:16:11;10.70;99.90
12634;DHT22;6382;48.614;8.880;2024-02-16T09:18:36;10.80;99.90
12634;DHT22;6382;48.614;8.880;2024-02-16T09:21:05;10.90;99.90
12634;DHT22;6382;48.614;8.880;2024-02-16T09:23:34;10.90;99.90
12634;DHT22;6382;48.614;8.880;2024-02-16T09:26:00;11.20;99.90
12634;DHT22;6382;48.614;8.880;2024-02-16T09:28:28;11.10;99.90
12634;DHT22;6382;48.614;8.880;2024-02-16T09:30:54;11.20;99.90
12634;DHT22;6382;48.614;8.880;2024-02-16T09:33:20;11.20;99.90
12634;DHT22;6382;48.614;8.880;2024-02-16T09:35:47;11.40;99.90
12634;DHT22;6382;48.614;8.880;2024-02-16T09:38:12;11.40;99.90
12634;DHT22;6382;48.614;8.880;2024-02-16T09:40:38;11.50;99.90
12634;DHT22;6382;48.614;8.880;2024-02-16T09:43:04;11.60;99.90
12634;DHT22;6382;48.614;8.880;2024-02-16T09:45:30;12.50;99.90
12634;DHT22;6382;48.614;8.880;2024-02-16T09:47:57;11.80;99.90
12634;DHT22;6382;48.614;8.880;2024-02-16T09:50:22;12.60;99.90
12634;DHT22;6382;48.614;8.880;2024-02-16T09:52:49;12.00;99.90
12634;DHT22;6382;48.614;8.880;2024-02-16T09:55:15;11.90;99.90
12634;DHT22;6382;48.614;8.880;2024-02-16T09:57:40;12.00;99.90
12634;DHT22;6382;48.614;8.880;2024-02-16T10:00:06;12.00;99.90
12634;DHT22;6382;48.614;8.880;2024-02-16T10:02:47;12.10;99.90
12634;DHT22;6382;48.614;8.880;2024-02-16T10:05:17;12.20;99.90
12634;DHT22;6382;48.614;8.880;2024-02-16T10:07:44;12.20;99.90
12634;DHT22;6382;48.614;8.880;2024-02-16T10:10:22;12.40;99.90
12634;DHT22;6382;48.614;8.880;2024-02-16T10:12:48;12.30;99.90
12634;DHT22;6382;48.614;8.880;2024-02-16T10:15:20;12.30;99.90
12634;DHT22;6382;48.614;8.880;2024-02-16T10:20:24;12.40;99.90
12634;DHT22;6382;48.614;8.880;2024-02-16T10:23:01;12.40;99.90
12634;DHT22;6382;48.614;8.880;2024-02-16T10:25:28;12.50;99.90
12634;DHT22;6382;48.614;8.880;2024-02-16T10:27:53;12.50;99.90
12634;DHT22;6382;48.614;8.880;2024-02-16T10:30:20;12.60;99.90
12634;DHT22;6382;48.614;8.880;2024-02-16T10:32:47;13.00;99.90
12634;DHT22;6382;48.614;8.880;2024-02-16T10:35:13;12.60;99.90
12634;DHT22;6382;48.614;8.880;2024-02-16T10:37:39;12.60;99.90
12634;DHT22;6382;48.614;8.880;2024-02-16T10:40:05;12.70;99.90
12634;DHT22;6382;48.614;8.880;2024-02-16T10:42:34;12.70;99.90
12634;DHT22;6382;48.614;8.880;2024-02-16T10:45:00;12.70;99.90
12634;DHT22;6382;48.614;8.880;2024-02-16T10:47:25;12.80;99.90
12634;DHT22;6382;48.614;8.880;2024-02-16T10:49:51;12.80;99.90
12634;DHT22;6382;48.614;8.880;2024-02-16T10:52:16;14.30;99.90
12634;DHT22;6382;48.614;8.880;2024-02-16T10:54:42;12.90;99.90
12634;DHT22;6382;48.614;8.880;2024-02-16T10:57:08;12.90;99.90
12634;DHT22;6382;48.614;8.880;2024-02-16T10:59:41;14.50;99.90
12634;DHT22;6382;48.614;8.880;2024-02-16T11:02:08;13.10;99.90
12634;DHT22;6382;48.614;8.880;2024-02-16T11:04:37;14.30;99.90
12634;DHT22;6382;48.614;8.880;2024-02-16T11:07:12;13.30;99.90
12634;DHT22;6382;48.614;8.880;2024-02-16T11:09:40;13.40;99.90
12634;DHT22;6382;48.614;8.880;2024-02-16T11:12:06;13.50;99.90
12634;DHT22;6382;48.614;8.880;2024-02-16T11:14:38;13.70;99.90
12634;DHT22;6382;48.614;8.880;2024-02-16T11:17:07;13.80;99.90
12634;DHT22;6382;48.614;8.880;2024-02-16T11:19:34;14.00;99.90
12634;DHT22;6382;48.614;8.880;2024-02-16T11:22:02;14.80;99.90
12634;DHT22;6382;48.614;8.880;2024-02-16T11:24:33;14.30;99.90
12634;DHT22;6382;48.614;8.880;2024-02-16T11:27:01;14.70;99.90
12634;DHT22;6382;48.614;8.880;2024-02-16T11:29:26;16.40;99.90
12634;DHT22;6382;48.614;8.880;2024-02-16T11:31:55;15.00;99.90
12634;DHT22;6382;48.614;8.880;2024-02-16T11:34:25;15.00;99.90
12634;DHT22;6382;48.614;8.880;2024-02-16T11:36:54;15.10;99.90
12634;DHT22;6382;48.614;8.880;2024-02-16T11:39:22;15.20;99.90
12634;DHT22;6382;48.614;8.880;2024-02-16T11:41:47;16.70;99.90
12634;DHT22;6382;48.614;8.880;2024-02-16T11:44:13;15.30;99.90
12634;DHT22;6382;48.614;8.880;2024-02-16T11:46:41;15.30;99.90
12634;DHT22;6382;48.614;8.880;2024-02-16T11:49:07;15.60;99.90
12634;DHT22;6382;48.614;8.880;2024-02-16T11:51:33;16.00;99.90
12634;DHT22;6382;48.614;8.880;2024-02-16T11:53:59;15.70;99.90
12634;DHT22;6382;48.614;8.880;2024-02-16T11:56:24;15.60;99.90
12634;DHT22;6382;48.614;8.880;2024-02-16T11:58:50;15.70;99.90
12634;DHT22;6382;48.614;8.880;2024-02-16T12:01:15;15.80;99.90
12634;DHT22;6382;48.614;8.880;2024-02-16T12:03:41;15.80;99.90
12634;DHT22;6382;48.614;8.880;2024-02-16T12:06:07;16.50;99.90
12634;DHT22;6382;48.614;8.880;2024-02-16T12:08:33;16.60;99.90
12634;DHT22;6382;48.614;8.880;2024-02-16T12:10:59;16.80;99.90
12634;DHT22;6382;48.614;8.880;2024-02-16T12:13:25;16.00;99.90
12634;DHT22;6382;48.614;8.880;2024-02-16T12:15:50;16.10;99.90
12634;DHT22;6382;48.614;8.880;2024-02-16T12:18:23;16.70;99.90
12634;DHT22;6382;48.614;8.880;2024-02-16T12:21:07;16.00;99.90
12634;DHT22;6382;48.614;8.880;2024-02-16T12:23:33;15.90;99.90
12634;DHT22;6382;48.614;8.880;2024-02-16T12:25:59;16.50;99.90
12634;DHT22;6382;48.614;8.880;2024-02-16T12:28:25;16.00;99.90
12634;DHT22;6382;48.614;8.880;2024-02-16T12:30:51;16.10;99.90
12634;DHT22;6382;48.614;8.880;2024-02-16T12:33:17;16.00;99.90
12634;DHT22;6382;48.614;8.880;2024-02-16T12:35:42;16.10;99.90
12634;DHT22;6382;48.614;8.880;2024-02-16T12:38:08;15.90;99.90
12634;DHT22;6382;48.614;8.880;2024-02-16T12:40:34;15.70;99.90
12634;DHT22;6382;48.614;8.880;2024-02-16T12:42:59;15.60;99.90
12634;DHT22;6382;48.614;8.880;2024-02-16T12:45:25;15.50;99.90
12634;DHT22;6382;48.614;8.880;2024-02-16T12:47:50;15.40;99.90
12634;DHT22;6382;48.614;8.880;2024-02-16T12:50:16;15.30;99.90
12634;DHT22;6382;48.614;8.880;2024-02-16T12:52:42;15.30;99.90
12634;DHT22;6382;48.614;8.880;2024-02-16T12:55:08;15.30;99.90
12634;DHT22;6382;48.614;8.880;2024-02-16T12:57:35;15.30;99.90
12634;DHT22;6382;48.614;8.880;2024-02-16T13:00:01;15.30;99.90
12634;DHT22;6382;48.614;8.880;2024-02-16T13:02:28;15.30;99.90
12634;DHT22;6382;48.614;8.880;2024-02-16T13:04:54;15.30;99.90
12634;DHT22;6382;48.614;8.880;2024-02-16T13:07:19;17.10;99.90
12634;DHT22;6382;48.614;8.880;2024-02-16T13:09:45;15.50;99.90
12634;DHT22;6382;48.614;8.880;2024-02-16T13:12:11;15.60;99.90
12634;DHT22;6382;48.614;8.880;2024-02-16T13:14:36;15.60;99.90
12634;DHT22;6382;48.614;8.880;2024-02-16T13:17:02;16.20;99.90
12634;DHT22;6382;48.614;8.880;2024-02-16T13:19:27;15.80;99.90
12634;DHT22;6382;48.614;8.880;2024-02-16T13:21:53;15.80;99.90
12634;DHT22;6382;48.614;8.880;2024-02-16T13:24:18;15.80;99.90
12634;DHT22;6382;48.614;8.880;2024-02-16T13:26:44;15.80;99.90
12634;DHT22;6382;48.614;8.880;2024-02-16T13:29:09;15.80;99.90
12634;DHT22;6382;48.614;8.880;2024-02-16T13:31:35;15.90;99.90
12634;DHT22;6382;48.614;8.880;2024-02-16T13:34:00;16.30;99.90
12634;DHT22;6382;48.614;8.880;2024-02-16T13:36:26;16.60;99.90
12634;DHT22;6382;48.614;8.880;2024-02-16T13:38:51;15.90;99.90
12634;DHT22;6382;48.614;8.880;2024-02-16T13:41:18;16.00;99.90
12634;DHT22;6382;48.614;8.880;2024-02-16T13:43:43;17.00;99.90
12634;DHT22;6382;48.614;8.880;2024-02-16T13:46:11;15.90;99.90
12634;DHT22;6382;48.614;8.880;2024-02-16T13:48:36;16.40;99.90
12634;DHT22;6382;48.614;8.880;2024-02-16T13:51:03;15.90;99.90
12634;DHT22;6382;48.614;8.880;2024-02-16T13:53:28;16.00;99.90
12634;DHT22;6382;48.614;8.880;2024-02-16T13:55:54;15.90;99.90
12634;DHT22;6382;48.614;8.880;2024-02-16T13:58:20;15.80;99.90
12634;DHT22;6382;48.614;8.880;2024-02-16T14:00:46;15.80;99.90
12634;DHT22;6382;48.614;8.880;2024-02-16T14:03:12;15.80;99.90
12634;DHT22;6382;48.614;8.880;2024-02-16T14:05:39;16.20;99.90
12634;DHT22;6382;48.614;8.880;2024-02-16T14:08:05;15.80;99.90
12634;DHT22;6382;48.614;8.880;2024-02-16T14:10:31;15.80;99.90
12634;DHT22;6382;48.614;8.880;2024-02-16T14:12:59;15.70;99.90
12634;DHT22;6382;48.614;8.880;2024-02-16T14:15:25;17.30;99.90
12634;DHT22;6382;48.614;8.880;2024-02-16T14:17:50;15.60;99.90
12634;DHT22;6382;48.614;8.880;2024-02-16T14:20:16;15.60;99.90
12634;DHT22;6382;48.614;8.880;2024-02-16T14:22:41;15.70;99.90
12634;DHT22;6382;48.614;8.880;2024-02-16T14:25:06;15.60;99.90
12634;DHT22;6382;48.614;8.880;2024-02-16T14:27:35;15.60;99.90
12634;DHT22;6382;48.614;8.880;2024-02-16T14:30:01;15.60;99.90
12634;DHT22;6382;48.614;8.880;2024-02-16T14:32:27;15.60;99.90
12634;DHT22;6382;48.614;8.880;2024-02-16T14:34:52;15.50;99.90
12634;DHT22;6382;48.614;8.880;2024-02-16T14:37:18;15.50;99.90
12634;DHT22;6382;48.614;8.880;2024-02-16T14:39:44;15.40;99.90
12634;DHT22;6382;48.614;8.880;2024-02-16T14:42:09;15.40;99.90
12634;DHT22;6382;48.614;8.880;2024-02-16T14:44:35;16.00;99.90
12634;DHT22;6382;48.614;8.880;2024-02-16T14:47:00;15.30;99.90
12634;DHT22;6382;48.614;8.880;2024-02-16T14:49:26;15.30;99.90
12634;DHT22;6382;48.614;8.880;2024-02-16T14:51:52;15.20;99.90
12634;DHT22;6382;48.614;8.880;2024-02-16T14:54:18;15.30;99.90
12634;DHT22;6382;48.614;8.880;2024-02-16T14:56:44;15.30;99.90
12634;DHT22;6382;48.614;8.880;2024-02-16T14:59:09;15.20;99.90
12634;DHT22;6382;48.614;8.880;2024-02-16T15:01:36;15.10;99.90
12634;DHT22;6382;48.614;8.880;2024-02-16T15:04:02;15.00;99.90
12634;DHT22;6382;48.614;8.880;2024-02-16T15:06:28;15.00;99.90
12634;DHT22;6382;48.614;8.880;2024-02-16T15:08:54;15.00;99.90
12634;DHT22;6382;48.614;8.880;2024-02-16T15:11:19;14.90;99.90
12634;DHT22;6382;48.614;8.880;2024-02-16T15:13:45;14.90;99.90
12634;DHT22;6382;48.614;8.880;2024-02-16T15:16:10;14.80;99.90
12634;DHT22;6382;48.614;8.880;2024-02-16T15:18:36;14.70;99.90
12634;DHT22;6382;48.614;8.880;2024-02-16T15:21:01;14.60;99.90
12634;DHT22;6382;48.614;8.880;2024-02-16T15:23:27;14.60;99.90
12634;DHT22;6382;48.614;8.880;2024-02-16T15:25:52;14.50;99.90
12634;DHT22;6382;48.614;8.880;2024-02-16T15:28:18;14.40;99.90
12634;DHT22;6382;48.614;8.880;2024-02-16T15:30:43;14.40;99.90
12634;DHT22;6382;48.614;8.880;2024-02-16T15:33:10;14.40;99.90
12634;DHT22;6382;48.614;8.880;2024-02-16T15:35:35;14.30;99.90
12634;DHT22;6382;48.614;8.880;2024-02-16T15:38:01;14.30;99.90
12634;DHT22;6382;48.614;8.880;2024-02-16T15:40:26;14.30;99.90
12634;DHT22;6382;48.614;8.880;2024-02-16T15:42:59;14.30;99.90
12634;DHT22;6382;48.614;8.880;2024-02-16T15:45:25;14.20;99.90
12634;DHT22;6382;48.614;8.880;2024-02-16T15:47:51;14.20;99.90
12634;DHT22;6382;48.614;8.880;2024-02-16T15:50:16;14.20;99.90
12634;DHT22;6382;48.614;8.880;2024-02-16T15:52:42;14.20;99.90